Latest Weather Observations for Mount Keith

IDW60801

Issued at 11:03 am WST Sunday 26 March 2017 (issued every 30 minutes, with the page automatically refreshed every 10 minutes)

About weather observations | Map of weather stations | Latest weather observations for WA | Other Formats
Station Details ID: 512019 Name: MOUNT KEITH Lat: -27.29 Lon: 120.55 Height: 542.33 m
Data from the previous 72 hours. | See also: Recent months for locations in Western Australia
Date/Time
WST
Temp
°C
App
Temp
°C
Dew
Point
°C
Rel
Hum
%
Delta-T
°C
Wind Press
QNH
hPa
Press
MSL
hPa
Rain since
9am
mm
Dir  Spd
km/h
Gust
km/h
Spd
kts
Gust
kts
26/11:00am 27.4 27.3 18.7 59 5.7 WSW 17 24 9 13 1013.6 1009.9 0.0
26/10:30am 26.7 27.1 19.8 66 4.6 W 17 22 9 12 1013.7 1010.0 0.0
26/10:00am 25.9 25.9 19.8 69 4.0 WSW 19 26 10 14 1014.0 1010.3 0.0
26/09:30am 25.6 25.7 19.9 70 3.8 WSW 19 24 10 13 1014.3 1010.6 0.0
26/09:00am 25.1 26.4 20.1 74 3.3 W 13 20 7 11 1014.1 1010.4 0.4
26/08:30am 24.3 26.3 20.0 77 2.8 WNW 9 11 5 6 1014.0 1010.3 0.4
26/08:00am 23.3 25.7 20.8 86 1.7 W 9 13 5 7 1013.8 1010.1 0.4
26/07:30am 21.6 25.6 21.4 99 0.1 NW 2 7 1 4 1013.6 1009.9 0.4
26/07:00am 20.2 24.0 20.2 100 0.0 CALM 0 0 0 0 1013.2 1009.5 0.4
26/06:30am 19.7 22.1 19.7 100 0.0 NW 6 6 3 3 1012.8 1009.2 0.4
26/06:00am 19.5 21.3 19.5 100 0.0 NW 9 9 5 5 1012.2 1008.5 0.4
26/05:34am 19.4 21.5 19.4 100 0.0 NW 7 9 4 5 1011.9 1008.2 0.4
26/05:33am 19.5 21.7 19.5 100 0.0 NW 7 9 4 5 1011.9 1008.2 0.4
26/05:30am 19.5 21.7 19.5 100 0.0 NW 7 9 4 5 1011.9 1008.2 0.4
26/05:00am 19.6 21.4 19.6 100 0.0 NW 9 11 5 6 1011.9 1008.2 0.4
26/04:42am 19.8 21.6 19.6 99 0.1 WNW 9 11 5 6 1011.7 1008.0 0.4
26/04:36am 19.9 21.8 19.7 99 0.1 WNW 9 13 5 7 1011.6 1007.9 0.4
26/04:30am 20.0 21.9 19.8 99 0.1 W 9 13 5 7 1011.6 1007.9 0.4
26/04:00am 19.9 23.5 19.7 99 0.1 CALM 0 0 0 0 1011.5 1007.8 0.2
26/03:30am 19.9 23.5 19.7 99 0.1 CALM 0 0 0 0 1011.3 1007.6 0.2
26/03:00am 20.1 23.0 19.9 99 0.1 SW 4 6 2 3 1011.3 1007.6 0.2
26/02:30am 20.3 22.9 20.1 99 0.1 SW 6 7 3 4 1011.3 1007.6 0.2
26/02:00am 20.6 23.1 20.3 98 0.2 SW 7 9 4 5 1011.3 1007.6 0.2
26/01:30am 20.6 23.3 20.3 98 0.2 SW 6 7 3 4 1011.5 1007.8 0.2
26/01:00am 20.7 24.6 20.4 98 0.2 CALM 0 0 0 0 1011.7 1008.0 0.2
26/12:30am 21.0 25.0 20.5 97 0.3 CALM 0 0 0 0 1011.8 1008.1 0.2
26/12:00am 21.2 24.0 20.5 96 0.5 SW 6 7 3 4 1012.0 1008.3 0.2
 
Date/Time
WST
Temp
°C
App
Temp
°C
Dew
Point
°C
Rel
Hum
%
Delta-T
°C
Wind Press
QNH
hPa
Press
MSL
hPa
Rain since
9am
mm
Dir  Spd
km/h
Gust
km/h
Spd
kts
Gust
kts
25/11:40pm 21.4 24.1 20.7 96 0.5 SW 7 9 4 5 1012.0 1008.3 0.2
25/11:30pm 21.5 23.9 20.8 96 0.5 SW 9 11 5 6 1012.1 1008.4 0.2
25/11:25pm 21.5 23.5 20.7 95 0.5 SW 11 13 6 7 1012.0 1008.3 0.2
25/11:00pm 21.7 23.7 20.7 94 0.7 WSW 11 15 6 8 1012.1 1008.4 0.2
25/10:30pm 21.8 23.5 21.0 95 0.5 SW 13 15 7 8 1012.4 1008.7 0.0
25/10:00pm 22.0 23.9 21.3 96 0.5 SW 13 20 7 11 1012.4 1008.7 0.0
25/09:51pm 22.1 24.0 21.3 95 0.5 SW 13 19 7 10 1012.4 1008.7 0.0
25/09:43pm 22.2 23.8 21.4 95 0.5 SW 15 20 8 11 1012.4 1008.7 0.0
25/09:30pm 22.4 23.7 21.6 95 0.5 SW 17 22 9 12 1012.4 1008.7 0.0
25/09:26pm 22.5 24.0 21.3 93 0.8 SW 15 22 8 12 1012.4 1008.7 0.0
25/09:21pm 23.0 24.6 21.5 91 1.0 SW 15 20 8 11 1012.4 1008.7 0.0
25/09:00pm 23.1 25.0 21.4 90 1.1 SW 13 17 7 9 1012.2 1008.5 0.0
25/08:30pm 23.5 25.9 21.6 89 1.3 SW 11 13 6 7 1012.1 1008.4 0.0
25/08:18pm 23.6 25.7 21.7 89 1.3 SW 13 15 7 8 1012.0 1008.3 0.0
25/08:08pm 23.7 25.7 21.6 88 1.4 SW 13 19 7 10 1011.9 1008.2 0.0
25/08:01pm 23.8 25.8 21.5 87 1.5 SW 13 19 7 10 1011.8 1008.1 0.0
25/08:00pm 23.8 25.9 21.7 88 1.4 SW 13 17 7 9 1011.8 1008.1 0.0
25/07:48pm 24.0 25.6 21.5 86 1.7 SW 15 19 8 10 1011.7 1008.0 0.0
25/07:30pm 24.7 26.8 21.0 80 2.5 W 11 13 6 7 1011.4 1007.7 0.0
25/07:00pm 24.8 27.2 20.9 79 2.6 W 9 11 5 6 1011.0 1007.3 0.0
25/06:30pm 25.1 27.2 21.0 78 2.8 WNW 11 15 6 8 1010.7 1007.0 0.0
25/06:00pm 25.4 27.5 20.9 76 3.0 WNW 11 13 6 7 1010.3 1006.6 0.0
25/05:30pm 25.6 27.5 20.6 74 3.3 WNW 11 17 6 9 1009.9 1006.2 0.0
25/05:00pm 26.0 27.8 20.3 71 3.8 NW 11 17 6 9 1009.6 1005.9 0.0
25/04:30pm 26.1 27.7 20.7 72 3.6 NW 13 19 7 10 1009.3 1005.5 0.0
25/04:00pm 26.3 27.6 20.2 69 4.1 NW 13 20 7 11 1009.0 1005.3 0.0
25/03:30pm 26.3 26.6 20.4 70 3.9 WNW 19 26 10 14 1008.9 1005.2 0.0
25/03:00pm 26.2 26.7 20.1 69 4.1 WNW 17 24 9 13 1009.1 1005.4 0.0
25/02:30pm 26.2 26.8 20.3 70 3.9 NW 17 24 9 13 1009.0 1005.3 0.0
25/02:00pm 25.4 26.7 20.9 76 3.0 NW 15 20 8 11 1009.1 1005.4 0.0
25/01:30pm 25.1 26.0 20.8 77 2.9 WNW 17 24 9 13 1009.4 1005.6 0.0
25/01:00pm 24.8 25.4 20.3 76 3.0 NW 17 26 9 14 1009.5 1005.8 0.0
25/12:30pm 25.0 25.8 21.3 80 2.5 NW 19 28 10 15 1009.6 1005.9 0.0
25/12:00pm 23.7 24.5 20.6 83 2.1 NW 17 24 9 13 1009.9 1006.2 0.0
25/11:30am 23.8 24.5 20.5 82 2.2 NW 17 22 9 12 1010.2 1006.5 0.0
25/11:26am 23.7 24.3 20.2 81 2.3 NNW 17 24 9 13 1010.2 1006.5 0.0
25/11:00am 23.3 24.1 20.6 85 1.8 NNW 17 26 9 14 1010.3 1006.6 0.0
25/10:30am 22.9 23.3 20.6 87 1.5 NW 19 30 10 16 1010.4 1006.7 0.0
25/10:00am 22.5 22.9 20.6 89 1.3 NNW 19 26 10 14 1010.3 1006.6 0.0
25/09:30am 22.5 23.4 20.8 90 1.1 NNW 17 28 9 15 1010.1 1006.4 0.0
25/09:00am 22.0 22.7 21.2 95 0.5 N 19 26 10 14 1009.9 1006.2 44.0
25/08:35am 21.6 22.3 21.6 100 0.0 N 20 26 11 14 1009.7 1006.0 44.0
25/08:30am 21.4 22.0 21.4 100 0.0 N 20 26 11 14 1009.8 1006.1 44.0
25/08:17am 21.2 21.7 21.2 100 0.0 N 20 26 11 14 1009.7 1006.0 44.0
25/08:00am 21.1 21.6 21.1 100 0.0 N 20 26 11 14 1009.5 1005.8 44.0
25/07:35am 21.0 22.4 21.0 100 0.0 N 15 20 8 11 1009.4 1005.6 44.0
25/07:30am 20.9 22.6 20.9 100 0.0 N 13 19 7 10 1009.4 1005.6 44.0
25/07:00am 20.8 21.7 20.8 100 0.0 N 17 20 9 11 1009.1 1005.4 44.0
25/06:30am 20.8 21.7 20.8 100 0.0 NNE 17 26 9 14 1008.8 1005.1 44.0
25/06:00am 20.7 21.5 20.7 100 0.0 NNE 17 24 9 13 1008.5 1004.8 44.0
25/05:30am 20.7 21.1 20.7 100 0.0 NNE 19 26 10 14 1008.3 1004.6 44.0
25/05:00am 20.7 21.5 20.7 100 0.0 NE 17 24 9 13 1008.1 1004.4 44.0
25/04:52am 20.7 21.5 20.7 100 0.0 NE 17 22 9 12 1008.0 1004.3 44.0
25/04:48am 20.8 21.7 20.8 100 0.0 NE 17 22 9 12 1007.9 1004.2 43.8
25/04:30am 20.6 21.0 20.6 100 0.0 NE 19 24 10 13 1007.7 1003.9 43.8
25/04:00am 20.3 20.9 20.3 100 0.0 ENE 17 24 9 13 1007.6 1003.8 43.8
25/03:30am 20.0 20.5 20.0 100 0.0 ENE 17 24 9 13 1007.4 1003.6 43.8
25/03:00am 19.9 20.3 19.9 100 0.0 E 17 24 9 13 1007.4 1003.6 43.6
25/02:30am 19.7 20.0 19.7 100 0.0 ENE 17 22 9 12 1007.5 1003.7 43.4
25/02:18am 19.7 20.0 19.7 100 0.0 ENE 17 24 9 13 1007.6 1003.8 43.4
25/02:15am 19.7 20.0 19.7 100 0.0 ENE 17 24 9 13 1007.6 1003.8 43.4
25/02:00am 19.6 18.9 19.6 100 0.0 ENE 22 32 12 17 1007.6 1003.8 43.4
25/01:30am 19.7 18.0 19.7 100 0.0 E 28 35 15 19 1007.8 1004.1 43.2
25/01:19am 19.7 18.3 19.7 100 0.0 E 26 41 14 22 1007.9 1004.2 42.8
25/01:00am 19.7 18.7 19.7 100 0.0 E 24 35 13 19 1008.0 1004.3 42.8
25/12:52am 19.7 18.7 19.7 100 0.0 E 24 37 13 20 1008.0 1004.3 42.8
25/12:30am 19.7 18.3 19.7 100 0.0 E 26 35 14 19 1008.0 1004.3 42.8
25/12:26am 19.7 18.7 19.7 100 0.0 E 24 39 13 21 1008.1 1004.4 42.8
25/12:00am 19.9 17.9 19.9 100 0.0 E 30 44 16 24 1008.1 1004.4 42.8
 
Date/Time
WST
Temp
°C
App
Temp
°C
Dew
Point
°C
Rel
Hum
%
Delta-T
°C
Wind Press
QNH
hPa
Press
MSL
hPa
Rain since
9am
mm
Dir  Spd
km/h
Gust
km/h
Spd
kts
Gust
kts
24/11:37pm 19.9 17.9 19.9 100 0.0 E 30 44 16 24 1008.4 1004.7 42.6
24/11:30pm 20.0 17.6 20.0 100 0.0 E 32 44 17 24 1008.4 1004.7 42.6
24/11:22pm 20.0 17.6 20.0 100 0.0 E 32 46 17 25 1008.4 1004.7 42.4
24/11:00pm 19.9 18.2 19.9 100 0.0 E 28 48 15 26 1008.5 1004.8 42.0
24/10:55pm 20.0 18.4 20.0 100 0.0 E 28 48 15 26 1008.5 1004.8 41.8
24/10:34pm 20.0 17.6 20.0 100 0.0 ESE 32 48 17 26 1008.5 1004.8 41.6
24/10:30pm 20.0 17.6 20.0 100 0.0 ESE 32 46 17 25 1008.4 1004.7 41.6
24/10:00pm 20.1 17.8 20.1 100 0.0 ESE 32 44 17 24 1008.7 1005.0 40.4
24/09:30pm 20.4 18.2 20.4 100 0.0 ESE 32 46 17 25 1008.8 1005.1 37.0
24/09:00pm 20.2 17.9 20.2 100 0.0 ESE 32 43 17 23 1009.0 1005.3 32.8
24/08:38pm 20.3 18.7 20.1 99 0.1 ESE 28 46 15 25 1008.9 1005.2 28.0
24/08:30pm 20.3 18.4 20.1 99 0.1 ESE 30 46 16 25 1008.7 1005.0 26.8
24/08:27pm 20.3 18.0 20.1 99 0.1 ESE 32 44 17 24 1008.7 1005.0 26.4
24/08:00pm 20.2 18.2 20.0 99 0.1 ESE 30 46 16 25 1008.5 1004.8 25.0
24/07:51pm 20.2 17.8 20.0 99 0.1 ESE 32 46 17 25 1008.5 1004.8 25.0
24/07:34pm 20.2 18.2 20.0 99 0.1 ESE 30 48 16 26 1008.3 1004.6 24.8
24/07:30pm 20.3 18.3 20.0 98 0.2 ESE 30 46 16 25 1008.4 1004.7 23.2
24/07:00pm 20.5 18.5 20.0 97 0.3 ESE 30 46 16 25 1008.3 1004.6 20.8
24/06:57pm 20.6 19.1 20.3 98 0.2 ESE 28 46 15 25 1008.2 1004.5 20.4
24/06:30pm 20.6 19.1 20.3 98 0.2 ESE 28 44 15 24 1008.3 1004.6 19.0
24/06:00pm 20.6 19.4 20.1 97 0.3 ESE 26 41 14 22 1008.3 1004.6 18.0
24/05:30pm 20.7 19.2 20.2 97 0.3 ESE 28 43 15 23 1008.2 1004.5 16.6
24/05:00pm 20.8 19.1 20.5 98 0.2 ESE 30 43 16 23 1008.2 1004.5 16.2
24/04:30pm 20.7 18.5 20.4 98 0.2 ESE 32 46 17 25 1008.0 1004.3 16.0
24/04:00pm 20.6 19.1 20.3 98 0.2 ESE 28 41 15 22 1008.2 1004.5 15.2
24/03:51pm 20.6 19.1 20.3 98 0.2 ESE 28 46 15 25 1008.2 1004.5 15.0
24/03:30pm 20.6 19.1 20.3 98 0.2 ESE 28 41 15 22 1008.2 1004.5 14.6
24/03:00pm 20.4 18.5 20.2 99 0.1 ESE 30 41 16 22 1008.2 1004.5 13.8
24/02:36pm 20.3 19.1 20.1 99 0.1 ESE 26 41 14 22 1008.7 1005.0 13.4
24/02:30pm 20.3 19.1 20.1 99 0.1 ESE 26 37 14 20 1008.6 1004.9 13.2
24/02:03pm 20.5 18.7 20.3 99 0.1 ESE 30 46 16 25 1008.9 1005.2 12.8
24/02:00pm 20.5 19.1 20.5 100 0.0 ESE 28 46 15 25 1008.8 1005.1 12.6
24/01:58pm 20.5 19.0 20.3 99 0.1 ESE 28 46 15 25 1008.9 1005.2 12.4
24/01:30pm 20.5 18.7 20.3 99 0.1 ESE 30 43 16 23 1009.5 1005.8 11.2
24/01:00pm 20.5 18.9 20.0 97 0.3 ESE 28 43 15 23 1010.2 1006.5 9.4
24/12:57pm 20.5 18.9 20.0 97 0.3 ESE 28 43 15 23 1010.1 1006.4 9.2
24/12:30pm 20.6 18.9 19.9 96 0.5 ESE 28 39 15 21 1010.8 1007.1 7.6
24/12:00pm 20.6 18.9 19.9 96 0.5 ESE 28 43 15 23 1010.9 1007.2 6.6
24/11:30am 20.2 18.7 19.5 96 0.5 ESE 26 35 14 19 1011.5 1007.8 6.0
24/11:00am 20.0 18.4 19.3 96 0.5 ESE 26 41 14 22 1011.7 1008.0 5.6
24/10:34am 20.2 18.4 19.5 96 0.5 ESE 28 46 15 25 1011.9 1008.2 4.2
24/10:30am 20.1 18.2 19.4 96 0.5 ESE 28 39 15 21 1012.1 1008.4 4.0
24/10:00am 20.0 19.3 19.5 97 0.3 ESE 22 33 12 18 1012.6 1008.9 2.4
24/09:30am 20.1 18.6 19.4 96 0.5 ESE 26 35 14 19 1012.6 1008.9 0.4
24/09:00am 19.8 18.6 19.3 97 0.3 ESE 24 37 13 20 1012.4 1008.7 56.6
24/08:52am 19.7 17.7 19.2 97 0.3 ESE 28 35 15 19 1012.4 1008.7 56.4
24/08:30am 19.7 18.6 19.4 98 0.2 ESE 24 41 13 22 1012.4 1008.7 55.8
24/08:00am 19.7 19.5 19.4 98 0.2 ESE 19 30 10 16 1012.7 1009.0 54.8
24/07:58am 19.6 19.4 19.3 98 0.2 ESE 19 30 10 16 1012.6 1008.9 54.6
24/07:30am 19.5 19.0 19.2 98 0.2 SE 20 28 11 15 1012.3 1008.6 53.2
24/07:09am 19.4 18.5 19.1 98 0.2 ESE 22 30 12 16 1012.3 1008.6 53.0
24/07:00am 19.3 18.8 19.0 98 0.2 ESE 20 30 11 16 1012.2 1008.5 52.8
24/06:30am 19.2 18.7 19.0 99 0.1 ESE 20 26 11 14 1012.4 1008.7 52.0
24/06:00am 19.0 18.6 18.8 99 0.1 ESE 19 26 10 14 1012.3 1008.6 51.4
24/05:51am 19.0 18.5 18.7 98 0.2 ESE 19 26 10 14 1012.4 1008.7 50.8
24/05:39am 19.0 18.4 18.8 99 0.1 SE 20 30 11 16 1012.0 1008.3 50.6
24/05:32am 18.9 17.8 18.7 99 0.1 SE 22 30 12 16 1011.8 1008.1 50.6
24/05:30am 18.9 17.8 18.6 98 0.2 SE 22 28 12 15 1011.8 1008.1 50.4
24/05:09am 18.9 19.9 18.6 98 0.2 ENE 11 15 6 8 1013.2 1009.5 48.4
24/05:00am 18.8 19.0 18.5 98 0.2 ESE 15 24 8 13 1012.7 1009.0 46.6
24/04:30am 18.8 18.2 18.5 98 0.2 SE 19 24 10 13 1012.0 1008.3 45.8
24/04:00am 18.8 19.0 18.6 99 0.1 ESE 15 24 8 13 1012.1 1008.4 45.2
24/03:30am 18.8 18.6 18.6 99 0.1 ESE 17 22 9 12 1012.1 1008.4 44.8
24/03:03am 18.7 18.5 18.5 99 0.1 SE 17 20 9 11 1012.3 1008.6 44.4
24/03:00am 18.8 18.6 18.6 99 0.1 SE 17 22 9 12 1012.2 1008.5 44.2
24/02:30am 18.7 18.9 18.5 99 0.1 ESE 15 22 8 12 1012.3 1008.6 44.0
24/02:10am 18.6 18.4 18.4 99 0.1 ESE 17 22 9 12 1012.3 1008.6 44.0
24/02:00am 18.7 19.6 18.5 99 0.1 ESE 11 17 6 9 1012.9 1009.3 43.8
24/01:47am 18.7 19.6 18.5 99 0.1 ESE 11 13 6 7 1013.2 1009.5 43.2
24/01:43am 18.7 19.3 18.5 99 0.1 E 13 17 7 9 1013.3 1009.6 43.2
24/01:30am 18.7 19.3 18.5 99 0.1 E 13 20 7 11 1013.5 1009.8 42.6
24/01:27am 18.7 19.6 18.5 99 0.1 E 11 17 6 9 1013.6 1009.9 42.4
24/01:04am 18.7 19.6 18.4 98 0.2 ENE 11 15 6 8 1013.9 1010.2 40.4
24/01:03am 18.7 19.6 18.4 98 0.2 ENE 11 15 6 8 1013.9 1010.2 40.4
24/01:00am 18.8 20.1 18.5 98 0.2 ENE 9 13 5 7 1014.0 1010.3 40.0
24/12:41am 18.8 19.4 18.5 98 0.2 ESE 13 17 7 9 1013.4 1009.7 38.6
24/12:30am 18.8 19.0 18.5 98 0.2 ESE 15 20 8 11 1013.3 1009.6 38.0
24/12:00am 19.1 19.8 18.8 98 0.2 ESE 13 20 7 11 1013.6 1009.9 35.2
 
Date/Time
WST
Temp
°C
App
Temp
°C
Dew
Point
°C
Rel
Hum
%
Delta-T
°C
Wind Press
QNH
hPa
Press
MSL
hPa
Rain since
9am
mm
Dir  Spd
km/h
Gust
km/h
Spd
kts
Gust
kts
23/11:59pm 19.1 19.8 18.9 99 0.1 ESE 13 20 7 11 1013.5 1009.8 35.2
23/11:30pm 19.2 19.9 18.9 98 0.2 E 13 20 7 11 1013.7 1010.0 31.2
23/11:03pm 19.4 20.6 19.1 98 0.2 SE 11 17 6 9 1013.2 1009.5 23.0
23/11:00pm 19.4 20.2 19.1 98 0.2 ESE 13 20 7 11 1013.2 1009.5 21.8
23/10:30pm 19.5 19.2 19.2 98 0.2 SE 19 24 10 13 1013.2 1009.5 19.0
23/10:23pm 19.6 19.8 19.3 98 0.2 SE 17 24 9 13 1013.2 1009.5 19.0
23/10:04pm 19.4 19.8 19.1 98 0.2 SE 15 24 8 13 1013.7 1010.0 18.0
23/10:00pm 19.4 19.1 19.1 98 0.2 SE 19 24 10 13 1013.7 1010.0 17.4
23/09:49pm 19.5 20.7 19.0 97 0.3 ESE 11 17 6 9 1014.2 1010.5 14.6
23/09:30pm 19.3 19.2 18.8 97 0.3 SSE 17 22 9 12 1013.4 1009.7 11.2
23/09:00pm 19.4 19.3 18.7 96 0.4 SSE 17 20 9 11 1013.8 1010.1 10.8
23/08:30pm 19.5 19.5 19.0 97 0.3 SSE 17 20 9 11 1013.8 1010.1 10.4
23/08:00pm 19.5 19.8 18.7 95 0.5 SSE 15 22 8 12 1014.2 1010.5 9.6
23/07:30pm 19.5 20.3 19.0 97 0.3 SSE 13 15 7 8 1014.1 1010.4 8.6
23/07:00pm 19.6 20.7 18.9 96 0.4 SSE 11 15 6 8 1014.0 1010.3 7.4
23/06:30pm 19.8 21.4 19.1 96 0.4 SE 9 15 5 8 1013.9 1010.2 6.2
23/06:00pm 19.7 21.2 18.9 95 0.5 S 9 9 5 5 1013.6 1009.9 5.2
23/05:30pm 19.8 21.1 18.5 92 0.8 SSE 9 13 5 7 1013.4 1009.7 4.6
23/05:00pm 20.2 21.4 19.0 93 0.8 ESE 11 15 6 8 1013.0 1009.4 4.0
23/04:30pm 20.6 20.9 18.7 89 1.2 SE 15 20 8 11 1012.6 1008.9 3.6
23/04:00pm 20.8 20.6 18.6 87 1.4 S 17 24 9 13 1012.6 1008.9 3.6
23/03:30pm 21.0 20.3 18.6 86 1.5 S 20 24 11 13 1012.7 1009.0 3.6
23/03:00pm 20.8 20.7 18.7 88 1.3 S 17 22 9 12 1012.9 1009.3 3.4
23/02:30pm 20.7 20.8 19.2 91 1.0 S 17 20 9 11 1013.2 1009.5 3.4
23/02:00pm 21.2 21.0 19.3 89 1.2 SW 19 24 10 13 1013.2 1009.5 2.8
23/01:55pm 21.2 21.0 19.3 89 1.2 SSW 19 26 10 14 1013.2 1009.5 2.8
23/01:36pm 21.4 20.2 19.3 88 1.4 SW 24 32 13 17 1012.7 1009.0 2.8
23/01:33pm 21.4 20.8 19.7 90 1.1 SW 22 30 12 16 1012.8 1009.2 2.8
23/01:30pm 21.4 21.1 19.5 89 1.2 SW 20 30 11 16 1012.8 1009.2 2.8
23/01:22pm 21.7 21.5 19.8 89 1.2 SW 20 28 11 15 1012.7 1009.0 2.8
23/01:13pm 21.7 21.0 19.4 87 1.5 SW 22 30 12 16 1012.7 1009.0 2.8
23/01:01pm 22.0 21.5 19.9 88 1.4 SW 22 32 12 17 1012.9 1009.3 2.8
23/01:00pm 22.0 21.5 19.9 88 1.4 SW 22 32 12 17 1012.9 1009.3 2.8
23/12:30pm 22.1 22.0 19.6 86 1.6 SW 19 24 10 13 1013.7 1010.0 2.8
23/12:21pm 22.1 22.3 20.2 89 1.3 WSW 19 26 10 14 1013.7 1010.0 2.8
23/12:00pm 22.1 25.0 20.6 91 1.0 SSW 6 15 3 8 1013.7 1010.0 2.2
23/11:30am 22.2 24.4 20.5 90 1.1 SW 9 11 5 6 1013.8 1010.1 2.0
23/11:28am 22.2 24.4 20.3 89 1.3 WSW 9 11 5 6 1013.9 1010.2 2.0
23/11:19am 22.3 24.5 20.4 89 1.3 WSW 9 13 5 7 1014.2 1010.5 2.0
23/11:03am 22.3 25.1 20.8 91 1.0 S 7 13 4 7 1013.6 1009.9 2.0

Other Formats:

Comma delimited format used in spreadsheet applications
http://www.bom.gov.au/fwo/IDW60801/IDW60801.99434.axf

JavaScript Object Notation format (JSON) in row-major order
http://www.bom.gov.au/fwo/IDW60801/IDW60801.99434.json